Time;durP1;ratioP1;P1;durP2;ratioP2;P2;SDS_P1;SDS_P2;PMS_P1;PMS_P2;Temp;Humidity;BMP_temperature;BMP_pressure;BME280_temperature;BME280_humidity;BME280_pressure;Samples;Min_cycle;Max_cycle;Signal;HPM_P1;HPM_P2
2023/12/18 00:00:39;;;;;;;16.67;10.07;;;5.50;99.90;;;;;;5074961;28;20033;-68
2023/12/18 00:03:05;;;;;;;16.83;9.70;;;5.50;99.90;;;;;;5058855;28;20029;-68
2023/12/18 00:05:31;;;;;;;20.95;9.85;;;5.50;99.90;;;;;;5058386;28;20033;-68
2023/12/18 00:07:57;;;;;;;15.18;9.55;;;5.60;99.90;;;;;;5058867;28;20022;-68
2023/12/18 00:10:23;;;;;;;12.40;9.18;;;5.60;99.90;;;;;;5058791;28;20037;-68
2023/12/18 00:12:48;;;;;;;15.20;9.75;;;5.60;99.90;;;;;;5058965;28;20090;-68
2023/12/18 00:15:14;;;;;;;15.73;10.00;;;5.80;99.90;;;;;;5058747;28;20029;-68
2023/12/18 00:17:40;;;;;;;15.00;9.60;;;5.70;99.90;;;;;;5058024;28;20075;-68
2023/12/18 00:20:06;;;;;;;14.80;9.63;;;5.60;99.90;;;;;;5058770;28;20029;-70
2023/12/18 00:22:32;;;;;;;15.90;9.40;;;5.60;99.90;;;;;;5057730;28;20037;-69
2023/12/18 00:24:58;;;;;;;14.80;9.18;;;5.60;99.90;;;;;;5074506;28;20457;-68
2023/12/18 00:27:24;;;;;;;16.00;10.07;;;5.50;99.90;;;;;;5058707;28;20087;-68
2023/12/18 00:29:50;;;;;;;15.90;9.93;;;5.50;99.90;;;;;;5057719;28;20076;-68
2023/12/18 00:32:16;;;;;;;18.10;9.63;;;5.50;99.90;;;;;;5058380;28;20055;-67
2023/12/18 00:34:42;;;;;;;17.52;9.98;;;5.50;99.90;;;;;;5074358;28;20120;-68
2023/12/18 00:37:08;;;;;;;16.05;10.00;;;5.40;99.90;;;;;;5074236;28;20308;-69
2023/12/18 00:39:33;;;;;;;17.63;10.30;;;5.50;99.90;;;;;;5058285;28;20032;-69
2023/12/18 00:41:59;;;;;;;16.52;10.48;;;5.40;99.90;;;;;;5058072;28;20028;-68
2023/12/18 00:44:25;;;;;;;16.50;9.70;;;5.50;99.90;;;;;;5058528;28;20029;-68
2023/12/18 00:46:51;;;;;;;15.93;10.48;;;5.50;99.90;;;;;;5040898;28;20032;-69
2023/12/18 00:49:16;;;;;;;20.88;10.35;;;5.50;99.90;;;;;;5040929;28;20029;-69
2023/12/18 00:51:42;;;;;;;16.00;10.20;;;5.40;99.90;;;;;;5024338;28;20048;-68
2023/12/18 00:54:08;;;;;;;18.02;10.20;;;5.40;99.90;;;;;;5057342;28;20094;-69
2023/12/18 00:56:36;;;;;;;20.80;10.82;;;5.40;99.90;;;;;;5057947;28;20095;-68
2023/12/18 00:59:02;;;;;;;21.98;10.98;;;5.50;99.90;;;;;;5057993;28;20025;-68
2023/12/18 01:01:28;;;;;;;17.33;10.20;;;5.50;99.90;;;;;;5057234;28;20040;-69
2023/12/18 01:03:54;;;;;;;22.75;11.10;;;5.50;99.90;;;;;;5057771;28;20037;-68
2023/12/18 01:06:20;;;;;;;17.40;11.25;;;5.60;99.90;;;;;;5057082;28;20060;-68
2023/12/18 01:08:46;;;;;;;16.35;10.70;;;5.80;99.90;;;;;;5073558;28;20446;-69
2023/12/18 01:11:11;;;;;;;19.50;11.27;;;5.90;99.90;;;;;;5023902;28;20091;-70
2023/12/18 01:13:37;;;;;;;25.73;11.30;;;5.80;99.90;;;;;;5057665;28;20037;-68
2023/12/18 01:16:03;;;;;;;19.65;10.75;;;5.70;99.90;;;;;;5057669;28;20464;-68
2023/12/18 01:18:29;;;;;;;18.17;10.43;;;5.60;99.90;;;;;;5040328;28;20032;-69
2023/12/18 01:20:55;;;;;;;19.42;11.20;;;5.60;99.90;;;;;;5056798;28;20326;-68
2023/12/18 01:23:21;;;;;;;20.08;11.40;;;5.60;99.90;;;;;;5057389;28;20162;-68
2023/12/18 01:25:47;;;;;;;20.73;11.90;;;5.70;99.90;;;;;;5056792;28;20061;-68
2023/12/18 01:28:12;;;;;;;19.83;10.70;;;5.70;99.90;;;;;;5073154;28;20024;-67
2023/12/18 01:30:38;;;;;;;19.00;10.68;;;5.70;99.90;;;;;;5057439;28;20098;-68
2023/12/18 01:33:04;;;;;;;20.88;11.27;;;5.70;99.90;;;;;;5057270;28;20281;-68
2023/12/18 01:35:30;;;;;;;20.77;11.48;;;5.60;99.90;;;;;;5057277;28;20056;-68
2023/12/18 01:37:55;;;;;;;20.77;12.25;;;5.70;99.90;;;;;;5057227;28;20036;-68
2023/12/18 01:40:21;;;;;;;19.48;11.75;;;5.70;99.90;;;;;;5057230;28;20400;-69
2023/12/18 01:42:47;;;;;;;22.02;12.52;;;5.80;99.90;;;;;;5057171;28;20068;-70
2023/12/18 01:45:13;;;;;;;22.48;11.18;;;5.80;99.90;;;;;;5057144;28;20032;-69
2023/12/18 01:47:39;;;;;;;18.58;11.48;;;5.70;99.90;;;;;;5057119;28;20029;-68
2023/12/18 01:50:06;;;;;;;22.65;12.40;;;5.70;99.90;;;;;;5057046;28;20125;-68
2023/12/18 01:52:33;;;;;;;21.73;11.40;;;5.70;99.90;;;;;;5057080;28;20040;-68
2023/12/18 01:55:00;;;;;;;24.65;12.50;;;5.70;99.90;;;;;;5057048;28;20108;-68
2023/12/18 01:57:27;;;;;;;22.13;12.65;;;5.70;99.90;;;;;;5040118;28;20032;-68
2023/12/18 01:59:53;;;;;;;20.00;12.32;;;5.70;99.90;;;;;;5056959;28;20036;-69
2023/12/18 02:02:19;;;;;;;21.05;12.13;;;5.80;99.90;;;;;;5072819;28;20111;-69
2023/12/18 02:04:46;;;;;;;20.98;12.60;;;5.80;99.90;;;;;;5056857;28;20021;-69
2023/12/18 02:07:12;;;;;;;21.40;12.80;;;5.80;99.90;;;;;;5039461;28;20119;-69
2023/12/18 02:09:38;;;;;;;27.67;12.35;;;5.80;99.90;;;;;;5039579;28;20033;-69
2023/12/18 02:12:04;;;;;;;22.40;12.65;;;5.80;99.90;;;;;;5072790;28;20025;-69
2023/12/18 02:14:30;;;;;;;23.27;12.40;;;5.80;99.90;;;;;;5056704;28;20037;-68
2023/12/18 02:16:56;;;;;;;21.52;12.23;;;5.80;99.90;;;;;;5072732;28;20454;-70
2023/12/18 02:19:26;;;;;;;23.40;12.07;;;5.80;99.90;;;;;;5056703;28;20032;-69
2023/12/18 02:21:54;;;;;;;24.92;12.50;;;5.90;99.90;;;;;;5056696;28;20033;-69
2023/12/18 02:24:20;;;;;;;26.63;13.68;;;5.90;99.90;;;;;;5056643;28;20274;-68
2023/12/18 02:26:47;;;;;;;23.08;13.60;;;5.80;99.90;;;;;;5056813;28;20058;-68
2023/12/18 02:29:13;;;;;;;23.98;13.38;;;5.80;99.90;;;;;;5056421;28;20041;-69
2023/12/18 02:31:39;;;;;;;24.77;13.30;;;5.80;99.90;;;;;;5056748;28;20029;-69
2023/12/18 02:34:05;;;;;;;25.42;13.07;;;5.90;99.90;;;;;;5056568;28;20036;-69
2023/12/18 02:36:31;;;;;;;23.83;13.57;;;5.80;99.90;;;;;;5056601;28;20308;-69
2023/12/18 02:38:57;;;;;;;25.05;13.73;;;5.90;99.90;;;;;;5056527;28;20053;-69
2023/12/18 02:41:23;;;;;;;23.95;13.30;;;5.90;99.90;;;;;;5056483;28;20112;-69
2023/12/18 02:43:49;;;;;;;25.13;13.23;;;5.90;99.90;;;;;;5056599;28;20436;-68
2023/12/18 02:46:15;;;;;;;25.70;13.27;;;6.00;99.90;;;;;;5039106;28;20039;-70
2023/12/18 02:48:41;;;;;;;23.90;13.75;;;6.00;99.90;;;;;;5072368;28;20033;-69
2023/12/18 02:51:07;;;;;;;24.23;13.68;;;5.90;99.90;;;;;;5056488;28;20072;-69
2023/12/18 02:53:33;;;;;;;25.92;13.15;;;6.00;99.90;;;;;;5056418;28;20029;-69
2023/12/18 02:55:59;;;;;;;22.95;13.77;;;6.00;99.90;;;;;;5056357;28;20033;-68
2023/12/18 02:58:25;;;;;;;22.85;13.25;;;6.00;99.90;;;;;;5056315;28;20125;-68
2023/12/18 03:00:50;;;;;;;24.77;13.57;;;5.90;99.90;;;;;;5039090;28;20041;-69
2023/12/18 03:03:16;;;;;;;27.10;13.75;;;5.90;99.90;;;;;;5056197;28;20417;-69
2023/12/18 03:05:43;;;;;;;25.98;13.38;;;5.90;99.90;;;;;;5056348;28;20025;-69
2023/12/18 03:08:08;;;;;;;24.58;13.45;;;5.90;99.90;;;;;;5055468;28;20025;-68
2023/12/18 03:10:34;;;;;;;26.70;14.50;;;6.00;99.90;;;;;;5055580;28;20040;-69
2023/12/18 03:13:00;;;;;;;31.50;13.55;;;5.90;99.90;;;;;;5056181;28;20052;-69
2023/12/18 03:15:26;;;;;;;28.48;13.75;;;5.90;99.90;;;;;;5055561;28;20400;-69
2023/12/18 03:17:52;;;;;;;23.48;13.55;;;5.80;99.90;;;;;;5058909;28;20056;-71
2023/12/18 03:20:18;;;;;;;25.98;14.40;;;5.80;99.90;;;;;;5059199;28;20037;-69
2023/12/18 03:22:44;;;;;;;28.67;14.05;;;5.90;99.90;;;;;;5059687;28;20121;-69
2023/12/18 03:25:10;;;;;;;25.15;15.25;;;5.90;99.90;;;;;;5059803;28;20047;-68
2023/12/18 03:27:35;;;;;;;27.58;14.65;;;5.90;99.90;;;;;;5059662;28;20071;-68
2023/12/18 03:30:01;;;;;;;25.77;13.38;;;5.90;99.90;;;;;;5058826;28;20045;-68
2023/12/18 03:32:27;;;;;;;23.35;13.93;;;5.90;99.90;;;;;;5059569;28;20037;-68
2023/12/18 03:34:53;;;;;;;24.80;14.38;;;6.00;99.90;;;;;;5058908;28;20324;-68
2023/12/18 03:37:19;;;;;;;24.40;14.52;;;6.10;99.90;;;;;;5059785;28;20343;-68
2023/12/18 03:39:45;;;;;;;23.27;14.55;;;6.10;99.90;;;;;;5075394;28;20102;-68
2023/12/18 03:42:12;;;;;;;25.30;14.15;;;6.00;99.90;;;;;;5058649;28;20112;-68
2023/12/18 03:44:37;;;;;;;26.67;14.30;;;5.90;99.90;;;;;;5059415;28;20071;-68
2023/12/18 03:47:03;;;;;;;25.15;14.20;;;5.90;99.90;;;;;;5059351;28;20057;-69
2023/12/18 03:49:29;;;;;;;26.27;14.32;;;6.00;99.90;;;;;;5059311;28;20033;-68
2023/12/18 03:51:55;;;;;;;25.58;14.88;;;6.00;99.90;;;;;;5059163;28;20343;-68
2023/12/18 03:54:20;;;;;;;25.33;13.63;;;6.00;99.90;;;;;;5058427;28;20045;-69
2023/12/18 03:56:46;;;;;;;28.02;14.40;;;6.00;99.90;;;;;;5041899;28;20393;-68
2023/12/18 03:59:12;;;;;;;29.23;15.20;;;6.00;99.90;;;;;;5041717;28;20404;-68
2023/12/18 04:01:38;;;;;;;26.27;14.38;;;6.00;99.90;;;;;;5059133;28;20044;-68
2023/12/18 04:04:04;;;;;;;31.05;14.30;;;6.10;99.90;;;;;;5058876;28;20102;-69
2023/12/18 04:06:29;;;;;;;24.38;14.65;;;6.10;99.90;;;;;;5058276;28;20400;-68
2023/12/18 04:08:55;;;;;;;27.85;15.30;;;6.10;99.90;;;;;;5059051;28;20368;-69
2023/12/18 04:11:21;;;;;;;28.90;14.90;;;6.10;99.90;;;;;;5058903;28;20026;-68
2023/12/18 04:13:48;;;;;;;29.02;15.02;;;6.00;99.90;;;;;;5041547;28;20127;-68
2023/12/18 04:16:14;;;;;;;24.58;14.27;;;6.00;99.90;;;;;;5074716;28;20029;-68
2023/12/18 04:18:40;;;;;;;24.58;14.77;;;6.00;99.90;;;;;;5058731;28;20040;-69
2023/12/18 04:21:05;;;;;;;28.20;14.38;;;6.10;99.90;;;;;;5058033;28;20350;-68
2023/12/18 04:23:31;;;;;;;24.35;14.43;;;6.10;99.90;;;;;;5074413;28;20094;-69
2023/12/18 04:25:57;;;;;;;29.40;14.27;;;6.10;99.90;;;;;;5041263;28;20049;-68
2023/12/18 04:28:23;;;;;;;34.03;14.98;;;6.10;99.90;;;;;;5056553;28;20068;-69
2023/12/18 04:30:48;;;;;;;29.42;15.10;;;6.10;99.90;;;;;;5074500;28;20260;-70
2023/12/18 04:33:14;;;;;;;25.65;14.23;;;6.10;99.90;;;;;;5058273;28;20123;-70
2023/12/18 04:35:41;;;;;;;28.05;14.88;;;6.10;99.90;;;;;;5041132;28;20470;-69
2023/12/18 04:38:06;;;;;;;26.30;15.07;;;6.10;99.90;;;;;;5074301;28;20155;-69
2023/12/18 04:40:32;;;;;;;26.40;14.45;;;6.10;99.90;;;;;;5057572;28;20120;-69
2023/12/18 04:42:58;;;;;;;32.60;15.77;;;6.10;99.90;;;;;;5058128;28;20423;-69
2023/12/18 04:45:23;;;;;;;29.75;14.55;;;6.10;99.90;;;;;;5041246;28;20028;-69
2023/12/18 04:47:49;;;;;;;28.02;14.38;;;6.10;99.90;;;;;;5024404;28;20032;-69
2023/12/18 04:50:15;;;;;;;29.05;14.65;;;6.20;99.90;;;;;;5074062;28;20036;-69
2023/12/18 04:52:41;;;;;;;30.25;14.23;;;6.20;99.90;;;;;;5057512;28;20036;-70
2023/12/18 04:55:08;;;;;;;25.80;14.07;;;6.30;99.90;;;;;;5073905;28;20083;-69
2023/12/18 04:57:33;;;;;;;25.98;14.63;;;6.30;99.90;;;;;;5073873;28;20029;-69
2023/12/18 04:59:59;;;;;;;26.95;14.18;;;6.30;99.90;;;;;;5073899;28;20039;-69
2023/12/18 05:02:25;;;;;;;28.52;14.57;;;6.40;99.90;;;;;;5057014;28;20037;-70
2023/12/18 05:04:50;;;;;;;24.88;13.52;;;6.50;99.90;;;;;;5073736;28;20040;-69
2023/12/18 05:07:16;;;;;;;23.33;14.35;;;6.40;99.90;;;;;;5057132;28;20033;-69
2023/12/18 05:09:42;;;;;;;23.33;13.60;;;6.30;99.90;;;;;;5057789;28;20037;-69
2023/12/18 05:12:08;;;;;;;24.35;13.55;;;6.40;99.90;;;;;;5057687;28;20278;-70
2023/12/18 05:14:33;;;;;;;24.98;14.50;;;6.40;99.90;;;;;;5073596;28;20053;-69
2023/12/18 05:16:59;;;;;;;23.70;13.65;;;6.30;99.90;;;;;;5057651;28;20029;-69
2023/12/18 05:19:25;;;;;;;23.92;13.48;;;6.40;99.90;;;;;;5057694;28;20024;-69
2023/12/18 05:21:51;;;;;;;24.85;13.55;;;6.50;99.90;;;;;;5057677;28;20415;-69
2023/12/18 05:24:16;;;;;;;28.58;14.68;;;6.40;99.90;;;;;;5057410;28;20033;-69
2023/12/18 05:26:42;;;;;;;26.92;14.10;;;6.30;99.90;;;;;;5057475;28;20123;-69
2023/12/18 05:29:08;;;;;;;25.10;14.32;;;6.30;99.90;;;;;;5056555;28;20361;-69
2023/12/18 05:31:34;;;;;;;29.02;14.68;;;6.30;99.90;;;;;;5056606;28;20029;-69
2023/12/18 05:33:59;;;;;;;26.77;14.90;;;6.30;99.90;;;;;;5073317;28;20037;-68
2023/12/18 05:36:25;;;;;;;23.63;13.55;;;6.30;99.90;;;;;;5057234;28;20041;-70
2023/12/18 05:38:51;;;;;;;21.83;13.68;;;6.40;99.90;;;;;;5056583;28;20033;-69
2023/12/18 05:41:17;;;;;;;30.58;14.52;;;6.40;99.90;;;;;;5072889;28;20106;-69
2023/12/18 05:43:43;;;;;;;27.30;14.52;;;6.40;99.90;;;;;;5056332;28;20112;-68
2023/12/18 05:46:13;;;;;;;22.60;13.68;;;6.40;99.90;;;;;;5056487;28;20032;-68
2023/12/18 05:48:39;;;;;;;25.75;14.98;;;6.40;99.90;;;;;;5057126;28;20032;-68
2023/12/18 05:51:05;;;;;;;27.00;13.52;;;6.40;99.90;;;;;;5056193;28;20037;-68
2023/12/18 05:53:30;;;;;;;28.65;14.82;;;6.40;99.90;;;;;;5056260;28;20036;-69
2023/12/18 05:55:56;;;;;;;22.17;13.60;;;6.40;99.90;;;;;;5039730;28;20431;-69
2023/12/18 05:58:22;;;;;;;25.55;14.05;;;6.40;99.90;;;;;;5056161;28;20037;-69
2023/12/18 06:00:48;;;;;;;22.45;13.57;;;6.50;99.90;;;;;;5055964;28;20041;-69
2023/12/18 06:03:13;;;;;;;27.00;13.57;;;6.50;99.90;;;;;;5056009;28;20037;-69
2023/12/18 06:05:39;;;;;;;24.83;14.15;;;6.50;99.90;;;;;;5072817;28;20029;-69
2023/12/18 06:08:05;;;;;;;27.10;13.98;;;6.40;99.90;;;;;;5039480;28;20029;-69
2023/12/18 06:10:31;;;;;;;25.58;15.15;;;6.40;99.90;;;;;;5072747;28;20037;-70
2023/12/18 06:12:57;;;;;;;27.80;14.57;;;6.30;99.90;;;;;;5056711;28;20110;-71
2023/12/18 06:15:23;;;;;;;28.17;14.02;;;6.30;99.90;;;;;;5056789;28;20112;-69
2023/12/18 06:17:48;;;;;;;25.05;13.88;;;6.30;99.90;;;;;;5056607;28;20040;-69
2023/12/18 06:20:14;;;;;;;24.13;13.88;;;6.30;99.90;;;;;;5056670;28;20044;-69
2023/12/18 06:22:40;;;;;;;25.95;14.93;;;6.20;99.90;;;;;;5056516;28;20038;-69
2023/12/18 06:25:06;;;;;;;26.17;14.52;;;6.20;99.90;;;;;;5056599;28;20029;-70
2023/12/18 06:27:32;;;;;;;27.95;14.80;;;6.20;99.90;;;;;;5056546;28;20091;-69
2023/12/18 06:29:58;;;;;;;26.80;14.88;;;6.30;99.90;;;;;;5039179;28;20052;-69
2023/12/18 06:32:23;;;;;;;28.30;15.18;;;6.30;99.90;;;;;;5072456;28;20033;-69
2023/12/18 06:34:50;;;;;;;25.75;14.93;;;6.30;99.90;;;;;;5055742;28;20124;-69
2023/12/18 06:37:15;;;;;;;28.35;15.10;;;6.40;99.90;;;;;;5039210;28;20120;-69
2023/12/18 06:39:42;;;;;;;25.85;14.65;;;6.40;99.90;;;;;;5056458;28;20411;-69
2023/12/18 06:42:08;;;;;;;26.75;14.98;;;6.40;99.90;;;;;;5072144;28;20407;-70
2023/12/18 06:44:34;;;;;;;25.50;14.82;;;6.40;99.90;;;;;;5055798;28;20292;-70
2023/12/18 06:47:00;;;;;;;29.00;15.38;;;6.40;99.90;;;;;;5056331;28;20112;-69
2023/12/18 06:49:25;;;;;;;24.27;14.52;;;6.20;99.90;;;;;;5056372;28;20100;-69
2023/12/18 06:51:51;;;;;;;28.65;14.75;;;6.20;99.90;;;;;;5056799;28;20043;-70
2023/12/18 06:54:17;;;;;;;26.85;15.40;;;6.20;99.90;;;;;;5059613;28;20061;-71
2023/12/18 06:56:43;;;;;;;25.58;14.90;;;6.20;99.90;;;;;;5060283;28;20033;-69
2023/12/18 06:59:09;;;;;;;33.78;15.23;;;6.20;99.90;;;;;;5059388;28;20040;-69
2023/12/18 07:01:35;;;;;;;30.98;15.27;;;6.20;99.90;;;;;;5059161;28;20032;-68
2023/12/18 07:04:02;;;;;;;29.65;15.43;;;6.20;99.90;;;;;;5058950;28;20041;-69
2023/12/18 07:06:29;;;;;;;29.10;15.32;;;6.20;99.90;;;;;;5060040;28;20029;-69
2023/12/18 07:08:56;;;;;;;28.63;15.30;;;6.20;99.90;;;;;;5060000;28;20021;-69
2023/12/18 07:11:21;;;;;;;30.02;15.82;;;6.30;99.90;;;;;;5059169;28;20032;-70
2023/12/18 07:13:47;;;;;;;29.52;15.52;;;6.20;99.90;;;;;;5059993;28;20037;-70
2023/12/18 07:16:23;;;;;;;29.80;15.23;;;6.20;99.90;;;;;;5059786;28;20311;-70
2023/12/18 07:18:49;;;;;;;29.23;15.48;;;6.30;99.90;;;;;;5058916;28;20063;-70
2023/12/18 07:21:14;;;;;;;37.92;15.65;;;6.40;99.90;;;;;;5075675;28;20025;-70
2023/12/18 07:23:42;;;;;;;27.23;15.10;;;6.40;99.90;;;;;;5075160;28;20053;-69
2023/12/18 07:26:12;;;;;;;29.73;15.52;;;6.30;99.90;;;;;;5059555;28;20017;-69
2023/12/18 07:28:39;;;;;;;28.58;14.20;;;6.40;99.90;;;;;;5059421;28;20057;-65
2023/12/18 07:31:06;;;;;;;29.73;15.50;;;6.50;99.90;;;;;;5059747;28;20029;-69
2023/12/18 07:33:31;;;;;;;29.00;14.88;;;6.40;99.90;;;;;;5059056;28;20041;-69
2023/12/18 07:35:57;;;;;;;26.25;14.93;;;6.30;99.90;;;;;;5075606;28;20078;-70
2023/12/18 07:38:23;;;;;;;27.65;14.70;;;6.40;99.90;;;;;;5041798;28;20044;-70
2023/12/18 07:40:49;;;;;;;29.27;15.15;;;6.40;99.90;;;;;;5059424;28;20028;-70
2023/12/18 07:43:14;;;;;;;24.05;13.73;;;6.30;99.90;;;;;;5058953;28;20128;-70
2023/12/18 07:45:40;;;;;;;34.47;15.10;;;6.50;99.90;;;;;;5074928;28;20064;-70
2023/12/18 07:48:06;;;;;;;26.45;14.60;;;6.50;99.90;;;;;;5058017;28;20056;-71
2023/12/18 07:50:32;;;;;;;30.08;15.32;;;6.50;99.90;;;;;;5058686;28;20029;-70
2023/12/18 07:52:58;;;;;;;30.38;14.07;;;6.50;99.90;;;;;;5058986;28;20045;-71
2023/12/18 07:55:23;;;;;;;28.58;15.05;;;6.50;99.90;;;;;;5058315;28;20029;-72
2023/12/18 07:57:49;;;;;;;29.27;14.80;;;6.40;99.90;;;;;;5074885;28;20036;-71
2023/12/18 08:00:16;;;;;;;27.17;14.00;;;6.20;99.90;;;;;;5059012;28;20029;-70
2023/12/18 08:02:42;;;;;;;26.52;14.10;;;6.20;99.90;;;;;;5058927;28;20301;-71
2023/12/18 08:05:07;;;;;;;30.05;14.50;;;6.10;99.90;;;;;;5058824;28;20090;-70
2023/12/18 08:07:33;;;;;;;33.22;14.52;;;6.10;99.90;;;;;;5058991;28;20120;-71
2023/12/18 08:09:59;;;;;;;28.75;14.52;;;6.10;99.90;;;;;;5074463;28;20111;-72
2023/12/18 08:12:25;;;;;;;31.00;15.48;;;6.10;99.90;;;;;;5058937;28;20037;-69
2023/12/18 08:14:51;;;;;;;29.90;14.75;;;6.20;99.90;;;;;;5058642;28;20040;-70
2023/12/18 08:17:17;;;;;;;28.02;14.93;;;6.20;99.90;;;;;;5058670;28;20300;-70
2023/12/18 08:19:47;;;;;;;28.98;13.52;;;6.20;99.90;;;;;;5041368;28;20087;-70
2023/12/18 08:22:13;;;;;;;31.25;15.55;;;6.20;99.90;;;;;;5057114;28;20036;-71
2023/12/18 08:24:39;;;;;;;27.98;14.80;;;6.20;99.90;;;;;;5041309;28;20106;-70
2023/12/18 08:27:05;;;;;;;29.45;14.63;;;6.20;99.90;;;;;;5058485;28;20021;-71
2023/12/18 08:29:30;;;;;;;29.95;14.18;;;6.30;99.90;;;;;;5041113;28;20053;-71
2023/12/18 08:31:56;;;;;;;31.70;14.55;;;6.20;99.90;;;;;;5057924;28;20029;-70
2023/12/18 08:34:23;;;;;;;30.77;14.98;;;6.30;99.90;;;;;;5058447;28;20037;-71
2023/12/18 08:36:49;;;;;;;29.27;13.80;;;6.30;99.90;;;;;;5041405;28;20040;-68
2023/12/18 08:39:15;;;;;;;30.65;14.52;;;6.30;99.90;;;;;;5058126;28;20036;-70
2023/12/18 08:41:43;;;;;;;28.02;14.85;;;6.30;99.90;;;;;;5058417;28;20123;-70
2023/12/18 08:44:10;;;;;;;26.95;13.60;;;6.40;99.90;;;;;;5058105;28;20127;-70
2023/12/18 08:46:36;;;;;;;26.63;13.23;;;6.50;99.90;;;;;;5074281;28;20116;-69
2023/12/18 08:49:02;;;;;;;27.38;14.10;;;6.50;99.90;;;;;;5057435;28;20044;-71
2023/12/18 08:51:27;;;;;;;28.48;13.55;;;6.50;99.90;;;;;;5057391;28;20400;-70
2023/12/18 08:53:54;;;;;;;24.98;13.65;;;6.60;99.90;;;;;;5057967;28;20068;-70
2023/12/18 08:56:20;;;;;;;26.23;13.73;;;6.70;99.90;;;;;;5057167;28;20074;-70
2023/12/18 08:58:46;;;;;;;25.10;13.02;;;6.70;99.90;;;;;;5057813;28;20138;-70
2023/12/18 09:01:12;;;;;;;28.48;13.57;;;6.60;99.90;;;;;;5057762;28;20032;-70
2023/12/18 09:03:38;;;;;;;26.02;14.13;;;6.60;99.90;;;;;;5073575;28;20033;-71
2023/12/18 09:06:04;;;;;;;32.42;13.73;;;6.60;99.90;;;;;;5073523;28;20025;-71
2023/12/18 09:08:39;;;;;;;27.45;13.82;;;6.50;99.90;;;;;;5057752;28;20106;-70
2023/12/18 09:11:08;;;;;;;29.27;15.30;;;6.50;99.90;;;;;;5057100;28;20400;-70
2023/12/18 09:13:36;;;;;;;27.45;13.40;;;6.40;99.90;;;;;;5057597;28;20048;-70
2023/12/18 09:16:05;;;;;;;27.00;13.60;;;6.40;99.90;;;;;;5056485;28;20274;-71
2023/12/18 09:18:32;;;;;;;29.52;14.45;;;6.30;99.90;;;;;;5040450;28;20056;-71
2023/12/18 09:20:57;;;;;;;28.23;13.65;;;6.30;99.90;;;;;;5073549;28;20037;-70
2023/12/18 09:23:25;;;;;;;28.70;13.75;;;6.20;99.90;;;;;;5057517;28;20033;-71
2023/12/18 09:25:51;;;;;;;25.73;13.98;;;6.10;99.90;;;;;;5057479;28;20024;-71
2023/12/18 09:28:17;;;;;;;27.95;13.48;;;6.10;99.90;;;;;;5039938;28;20099;-71
2023/12/18 09:30:42;;;;;;;27.27;13.95;;;6.10;99.90;;;;;;5057392;28;20116;-71
2023/12/18 09:33:08;;;;;;;31.48;14.30;;;6.20;99.90;;;;;;5073250;28;20032;-70
2023/12/18 09:35:34;;;;;;;25.25;13.63;;;6.20;99.90;;;;;;5057289;28;20343;-71
2023/12/18 09:38:00;;;;;;;26.90;12.80;;;6.30;99.90;;;;;;5057182;28;20401;-71
2023/12/18 09:40:26;;;;;;;28.38;13.45;;;6.30;99.90;;;;;;5056566;28;20040;-72
2023/12/18 09:42:53;;;;;;;27.80;13.50;;;6.20;99.90;;;;;;5057096;28;20416;-71
2023/12/18 09:45:23;;;;;;;26.15;13.50;;;6.20;99.90;;;;;;5057184;28;20407;-73
2023/12/18 09:47:50;;;;;;;28.05;13.38;;;6.20;99.90;;;;;;5056987;28;20352;-72
2023/12/18 09:50:16;;;;;;;24.65;13.57;;;6.30;99.90;;;;;;5056292;28;20032;-71
2023/12/18 09:52:53;;;;;;;29.15;13.13;;;6.20;99.90;;;;;;5056228;28;20404;-71
2023/12/18 09:55:19;;;;;;;24.00;12.98;;;6.20;99.90;;;;;;5072925;28;20162;-71
2023/12/18 09:57:49;;;;;;;24.42;13.07;;;6.30;99.90;;;;;;5057126;28;20029;-71
2023/12/18 10:00:16;;;;;;;24.85;13.35;;;6.30;99.90;;;;;;5056915;28;20039;-74
2023/12/18 10:02:42;;;;;;;22.70;12.98;;;6.30;99.90;;;;;;5056757;28;20029;-71
2023/12/18 10:05:08;;;;;;;29.02;13.35;;;6.30;99.90;;;;;;5056762;28;20106;-70
2023/12/18 10:07:34;;;;;;;23.30;12.68;;;6.30;99.90;;;;;;5056715;28;20044;-71
2023/12/18 10:10:00;;;;;;;25.95;13.27;;;6.20;99.90;;;;;;5056811;28;20025;-71
2023/12/18 10:12:26;;;;;;;25.23;14.38;;;6.30;99.90;;;;;;5056163;28;20419;-71
2023/12/18 10:14:52;;;;;;;29.95;13.30;;;6.30;99.90;;;;;;5039632;28;20025;-71
2023/12/18 10:17:18;;;;;;;26.65;13.40;;;6.40;99.90;;;;;;5055923;28;20036;-70
2023/12/18 10:19:44;;;;;;;27.98;13.52;;;6.40;99.90;;;;;;5056645;28;20078;-72
2023/12/18 10:22:10;;;;;;;24.63;13.10;;;6.40;99.90;;;;;;5072428;28;20037;-71
2023/12/18 10:24:40;;;;;;;25.55;12.82;;;6.50;99.90;;;;;;5055386;28;20037;-72
2023/12/18 10:27:06;;;;;;;23.88;13.50;;;6.50;99.90;;;;;;5058252;28;20061;-71
2023/12/18 10:29:32;;;;;;;29.80;13.70;;;6.40;99.90;;;;;;5076144;28;20345;-71
2023/12/18 10:31:58;;;;;;;26.90;13.20;;;6.30;99.90;;;;;;5076212;28;20052;-72
2023/12/18 10:34:25;;;;;;;26.98;12.88;;;6.30;99.90;;;;;;5060665;28;20033;-72
2023/12/18 10:36:55;;;;;;;25.98;14.00;;;6.40;99.90;;;;;;5060686;28;20036;-71
2023/12/18 10:39:29;;;;;;;23.92;13.05;;;6.50;99.90;;;;;;5060491;28;20044;-70
2023/12/18 10:41:59;;;;;;;26.75;13.50;;;6.50;99.90;;;;;;5076291;28;20044;-73
2023/12/18 10:44:29;;;;;;;28.45;14.10;;;6.60;99.90;;;;;;5076378;28;20047;-69
2023/12/18 10:46:57;;;;;;;21.83;12.35;;;6.60;99.90;;;;;;5060358;28;20040;-71
2023/12/18 10:49:25;;;;;;;25.08;13.30;;;6.50;99.90;;;;;;5060361;28;20091;-71
2023/12/18 10:51:52;;;;;;;27.42;13.90;;;6.40;99.90;;;;;;5059596;28;20039;-73
2023/12/18 10:54:19;;;;;;;27.77;13.18;;;6.30;99.90;;;;;;5060329;28;20329;-71
2023/12/18 10:56:47;;;;;;;24.40;14.35;;;6.30;99.90;;;;;;5059521;28;20040;-72
2023/12/18 10:59:16;;;;;;;24.13;13.25;;;6.40;99.90;;;;;;5060180;28;20040;-69
2023/12/18 11:01:42;;;;;;;26.77;13.45;;;6.40;99.90;;;;;;5076118;28;20098;-70
2023/12/18 11:04:09;;;;;;;27.35;13.38;;;6.40;99.90;;;;;;5059056;28;20025;-70
2023/12/18 11:06:36;;;;;;;25.90;14.25;;;6.40;99.90;;;;;;5059403;28;20051;-70
2023/12/18 11:09:03;;;;;;;24.20;12.73;;;6.60;99.90;;;;;;5059162;28;20307;-70
2023/12/18 11:11:30;;;;;;;21.80;13.23;;;6.60;99.90;;;;;;5043055;28;20029;-71
2023/12/18 11:14:14;;;;;;;23.25;12.65;;;6.50;99.90;;;;;;5059880;28;20297;-70
2023/12/18 11:16:58;;;;;;;25.75;12.85;;;6.60;99.90;;;;;;5059948;28;20091;-72
2023/12/18 11:19:43;;;;;;;24.23;12.60;;;6.60;99.90;;;;;;5059840;28;20024;-71
2023/12/18 11:22:09;;;;;;;27.15;13.35;;;6.70;99.90;;;;;;5059739;28;20036;-70
2023/12/18 11:24:36;;;;;;;28.38;12.75;;;6.70;99.90;;;;;;5041971;28;20037;-70
2023/12/18 11:27:04;;;;;;;22.77;11.98;;;6.70;99.90;;;;;;5025759;28;20033;-70
2023/12/18 11:29:46;;;;;;;23.27;11.82;;;6.70;99.90;;;;;;5058613;28;20069;-70
2023/12/18 11:32:43;;;;;;;22.52;11.80;;;6.80;99.90;;;;;;5059302;28;20100;-70
2023/12/18 11:35:13;;;;;;;19.38;11.57;;;6.70;99.90;;;;;;5059761;28;20021;-70
2023/12/18 11:37:48;;;;;;;24.40;12.20;;;6.70;99.90;;;;;;5058551;28;20111;-71
2023/12/18 11:40:31;;;;;;;21.50;11.27;;;6.70;99.90;;;;;;5059362;28;20052;-71
2023/12/18 11:42:57;;;;;;;22.52;12.27;;;6.70;99.90;;;;;;5059233;28;20079;-71
2023/12/18 11:45:27;;;;;;;22.10;11.85;;;6.70;99.90;;;;;;5058506;28;20331;-72
2023/12/18 11:48:17;;;;;;;22.67;12.27;;;6.70;99.90;;;;;;5059417;28;20040;-71
2023/12/18 11:50:42;;;;;;;21.60;11.45;;;6.80;99.90;;;;;;5053725;28;20044;-70
2023/12/18 11:53:31;;;;;;;20.63;11.80;;;6.80;99.90;;;;;;5059215;28;20033;-69
2023/12/18 11:55:56;;;;;;;17.85;11.23;;;6.80;99.90;;;;;;5058990;28;20033;-71
2023/12/18 11:58:26;;;;;;;22.58;11.88;;;6.70;99.90;;;;;;5059077;28;20107;-71
2023/12/18 12:00:54;;;;;;;22.15;11.80;;;6.80;99.90;;;;;;5059103;28;20029;-71
2023/12/18 12:03:22;;;;;;;20.25;11.30;;;6.80;99.90;;;;;;5058932;28;20029;-70
2023/12/18 12:05:49;;;;;;;25.95;11.88;;;6.90;99.90;;;;;;5058942;28;20316;-69
2023/12/18 12:08:15;;;;;;;20.45;11.32;;;6.90;99.90;;;;;;5058843;28;20017;-73
2023/12/18 12:10:50;;;;;;;20.98;10.70;;;6.90;99.90;;;;;;5058189;28;20037;-71
2023/12/18 12:13:26;;;;;;;22.15;11.45;;;6.90;99.90;;;;;;5041691;28;20025;-71
2023/12/18 12:15:58;;;;;;;17.50;10.77;;;6.90;99.90;;;;;;5057934;28;20115;-71
2023/12/18 12:18:31;;;;;;;21.58;11.40;;;7.00;99.90;;;;;;5058056;28;20426;-70
2023/12/18 12:20:58;;;;;;;23.45;10.55;;;7.10;99.90;;;;;;5058015;28;20083;-69
2023/12/18 12:23:25;;;;;;;17.00;10.25;;;7.20;99.90;;;;;;5074477;28;20029;-69
2023/12/18 12:25:52;;;;;;;17.50;10.15;;;7.10;99.90;;;;;;5058469;28;20033;-70
2023/12/18 12:28:20;;;;;;;18.02;9.98;;;7.10;99.90;;;;;;5041004;28;20040;-69
2023/12/18 12:30:46;;;;;;;19.67;10.57;;;7.00;99.90;;;;;;5058495;28;20048;-71
2023/12/18 12:33:13;;;;;;;18.80;10.18;;;7.00;99.90;;;;;;5058447;28;20304;-71
2023/12/18 12:35:41;;;;;;;18.08;10.00;;;7.00;99.90;;;;;;5057711;28;20082;-72